createdAt,value
2018-07-22T00:02:19.552Z,24.42
2018-07-22T00:04:48.740Z,24.37
2018-07-22T00:07:17.953Z,24.32
2018-07-22T00:09:47.115Z,24.27
2018-07-22T00:12:16.135Z,24.24
2018-07-22T00:14:45.231Z,24.20
2018-07-22T00:17:14.507Z,24.17
2018-07-22T00:19:43.596Z,24.14
2018-07-22T00:22:12.677Z,24.10
2018-07-22T00:24:41.752Z,24.04
2018-07-22T00:27:10.971Z,24.01
2018-07-22T00:29:40.033Z,23.97
2018-07-22T00:32:09.323Z,23.92
2018-07-22T00:34:38.760Z,23.89
2018-07-22T00:37:07.848Z,23.84
2018-07-22T00:39:36.916Z,23.81
2018-07-22T00:42:06.164Z,23.76
2018-07-22T00:44:35.778Z,23.70
2018-07-22T00:47:04.872Z,23.67
2018-07-22T00:49:33.902Z,23.62
2018-07-22T00:52:02.937Z,23.59
2018-07-22T00:54:32.005Z,23.54
2018-07-22T00:57:01.158Z,23.50
2018-07-22T00:59:30.384Z,23.46
2018-07-22T01:01:59.517Z,23.41
2018-07-22T01:04:28.554Z,23.37
2018-07-22T01:06:57.591Z,23.34
2018-07-22T01:09:26.664Z,23.32
2018-07-22T01:11:55.911Z,23.29
2018-07-22T01:14:25.205Z,23.25
2018-07-22T01:16:54.748Z,23.23
2018-07-22T01:19:23.870Z,23.19
2018-07-22T01:21:52.935Z,23.15
2018-07-22T01:24:22.054Z,23.11
2018-07-22T01:26:51.106Z,23.07
2018-07-22T01:29:20.217Z,23.04
2018-07-22T01:31:49.275Z,22.99
2018-07-22T01:34:18.375Z,22.96
2018-07-22T01:36:47.424Z,22.91
2018-07-22T01:39:16.466Z,22.86
2018-07-22T01:41:45.559Z,22.81
2018-07-22T01:44:14.624Z,22.77
2018-07-22T01:46:43.757Z,22.72
2018-07-22T01:49:12.995Z,22.68
2018-07-22T01:51:42.956Z,22.62
2018-07-22T01:54:13.185Z,22.58
2018-07-22T01:56:43.259Z,22.55
2018-07-22T01:59:12.964Z,22.51
2018-07-22T02:01:43.033Z,22.50
2018-07-22T02:04:12.003Z,22.48
2018-07-22T02:06:41.064Z,22.48
2018-07-22T02:09:11.220Z,22.47
2018-07-22T02:11:40.592Z,22.46
2018-07-22T02:14:09.875Z,22.47
2018-07-22T02:16:38.903Z,22.46
2018-07-22T02:19:07.964Z,22.47
2018-07-22T02:21:36.976Z,22.46
2018-07-22T02:24:05.961Z,22.46
2018-07-22T02:26:34.947Z,22.45
2018-07-22T02:29:03.930Z,22.44
2018-07-22T02:31:32.922Z,22.44
2018-07-22T02:34:01.936Z,22.44
2018-07-22T02:36:30.980Z,22.43
2018-07-22T02:39:00.040Z,22.41
2018-07-22T02:41:29.099Z,22.37
2018-07-22T02:43:59.801Z,22.35
2018-07-22T02:46:29.150Z,22.30
2018-07-22T02:48:58.152Z,22.24
2018-07-22T02:51:27.313Z,22.20
2018-07-22T02:53:56.378Z,22.16
2018-07-22T02:56:25.504Z,22.12
2018-07-22T02:58:54.570Z,22.09
2018-07-22T03:01:23.655Z,22.07
2018-07-22T03:03:52.760Z,22.02
2018-07-22T03:06:21.820Z,22.00
2018-07-22T03:08:50.977Z,21.98
2018-07-22T03:11:20.075Z,21.95
2018-07-22T03:13:49.199Z,21.91
2018-07-22T03:16:18.264Z,21.87
2018-07-22T03:18:47.380Z,21.83
2018-07-22T03:21:16.488Z,21.78
2018-07-22T03:23:45.608Z,21.74
2018-07-22T03:26:14.755Z,21.73
2018-07-22T03:28:43.969Z,21.68
2018-07-22T03:31:13.140Z,21.64
2018-07-22T03:33:43.195Z,21.61
2018-07-22T03:36:12.413Z,21.57
2018-07-22T03:38:41.622Z,21.53
2018-07-22T03:41:10.876Z,21.48
2018-07-22T03:43:40.140Z,21.45
2018-07-22T03:46:09.698Z,21.40
2018-07-22T03:48:38.888Z,21.35
2018-07-22T03:51:07.956Z,21.32
2018-07-22T03:53:37.292Z,21.28
2018-07-22T03:56:06.360Z,21.26
2018-07-22T04:08:33.361Z,21.21
2018-07-22T04:11:02.465Z,20.06
2018-07-22T04:13:31.536Z,20.20
2018-07-22T04:16:00.580Z,20.36
2018-07-22T04:18:29.632Z,20.49
2018-07-22T04:20:58.728Z,20.64
2018-07-22T04:23:27.766Z,20.76
2018-07-22T04:25:56.874Z,20.88
2018-07-22T04:28:25.908Z,21.01
2018-07-22T04:30:54.968Z,21.14
2018-07-22T04:33:24.047Z,21.29
2018-07-22T04:35:53.133Z,21.44
2018-07-22T04:38:22.254Z,21.56
2018-07-22T04:40:51.617Z,21.68
2018-07-22T04:43:20.648Z,21.78
2018-07-22T04:45:49.801Z,21.87
2018-07-22T04:48:18.897Z,21.95
2018-07-22T04:50:48.284Z,22.03
2018-07-22T04:53:18.905Z,22.08
2018-07-22T04:55:48.143Z,22.15
2018-07-22T04:58:17.331Z,22.24
2018-07-22T05:00:46.871Z,22.40
2018-07-22T05:03:16.447Z,22.60
2018-07-22T05:05:46.153Z,22.83
2018-07-22T05:08:15.873Z,23.10
2018-07-22T05:10:45.259Z,23.40
2018-07-22T05:13:14.656Z,23.73
2018-07-22T05:15:45.531Z,24.07
2018-07-22T05:18:14.940Z,24.42
2018-07-22T05:20:44.427Z,24.81
2018-07-22T05:23:13.996Z,25.14
2018-07-22T05:25:44.446Z,25.46
2018-07-22T05:28:16.069Z,25.75
2018-07-22T05:30:46.027Z,26.08
2018-07-22T05:33:16.060Z,26.38
2018-07-22T05:35:45.721Z,26.68
2018-07-22T05:38:15.222Z,26.96
2018-07-22T05:40:45.129Z,27.30
2018-07-22T05:43:14.285Z,27.60
2018-07-22T05:45:43.384Z,27.85
2018-07-22T05:48:12.607Z,27.97
2018-07-22T05:50:41.920Z,27.95
2018-07-22T05:53:11.204Z,27.80
2018-07-22T05:55:40.150Z,27.57
2018-07-22T05:58:09.406Z,27.32
2018-07-22T06:00:39.308Z,27.06
2018-07-22T06:03:08.564Z,26.82
2018-07-22T06:05:37.716Z,26.63
2018-07-22T06:08:07.300Z,26.42
2018-07-22T06:10:36.455Z,26.22
2018-07-22T06:13:06.069Z,26.07
2018-07-22T06:15:35.232Z,25.90
2018-07-22T06:18:05.264Z,25.76
2018-07-22T06:20:34.407Z,25.65
2018-07-22T06:23:03.460Z,25.56
2018-07-22T06:25:32.619Z,25.51
2018-07-22T06:28:01.745Z,25.43
2018-07-22T06:30:30.864Z,25.37
2018-07-22T06:32:59.988Z,25.32
2018-07-22T06:35:29.096Z,25.28
2018-07-22T06:37:58.196Z,25.26
2018-07-22T06:40:27.313Z,25.25
2018-07-22T06:42:56.431Z,25.28
2018-07-22T06:45:25.300Z,25.35
2018-07-22T06:47:54.597Z,25.38
2018-07-22T06:50:23.793Z,25.44
2018-07-22T06:52:53.045Z,25.53
2018-07-22T06:55:22.190Z,25.66
2018-07-22T06:57:51.553Z,25.81
2018-07-22T07:00:20.626Z,25.99
2018-07-22T07:02:49.668Z,26.26
2018-07-22T07:05:18.788Z,26.84
2018-07-22T07:07:47.801Z,27.53
2018-07-22T07:10:17.525Z,28.07
2018-07-22T07:12:46.860Z,28.50
2018-07-22T07:15:15.929Z,29.06
2018-07-22T07:17:45.873Z,29.82
2018-07-22T07:20:14.973Z,30.72
2018-07-22T07:22:44.180Z,31.56
2018-07-22T07:25:13.869Z,32.30
2018-07-22T07:27:42.971Z,33.06
2018-07-22T07:30:12.156Z,33.75
2018-07-22T07:32:41.242Z,34.33
2018-07-22T07:35:10.325Z,34.77
2018-07-22T07:37:39.889Z,35.05
2018-07-22T07:40:09.115Z,35.26
2018-07-22T07:42:39.084Z,35.61
2018-07-22T07:45:08.334Z,35.93
2018-07-22T07:47:37.532Z,36.29
2018-07-22T07:50:06.785Z,36.60
2018-07-22T07:52:35.838Z,36.90
2018-07-22T07:55:04.974Z,37.14
2018-07-22T07:57:34.071Z,37.28
2018-07-22T08:00:03.267Z,37.49
2018-07-22T08:02:32.364Z,37.64
2018-07-22T08:05:01.457Z,37.66
2018-07-22T08:07:30.539Z,37.72
2018-07-22T08:09:59.684Z,37.90
2018-07-22T08:12:28.830Z,38.15
2018-07-22T08:14:58.025Z,38.34
2018-07-22T08:17:27.172Z,38.51
2018-07-22T08:19:56.327Z,38.69
2018-07-22T08:22:26.230Z,38.79
2018-07-22T08:24:56.367Z,38.76
2018-07-22T08:27:25.557Z,38.71
2018-07-22T08:29:54.724Z,38.69
2018-07-22T08:32:23.859Z,38.71
2018-07-22T08:34:52.981Z,38.70
2018-07-22T08:37:22.069Z,38.92
2018-07-22T08:39:51.030Z,39.22
2018-07-22T08:42:20.255Z,39.18
2018-07-22T08:44:49.519Z,38.89
2018-07-22T08:47:18.661Z,38.63
2018-07-22T08:49:47.808Z,38.28
2018-07-22T08:52:16.876Z,37.95
2018-07-22T08:54:46.787Z,37.59
2018-07-22T08:57:16.615Z,37.30
2018-07-22T08:59:46.675Z,37.08
2018-07-22T09:02:15.780Z,37.03
2018-07-22T09:04:44.943Z,36.95
2018-07-22T09:07:14.073Z,36.87
2018-07-22T09:09:43.256Z,36.86
2018-07-22T09:12:12.788Z,37.03
2018-07-22T09:14:42.680Z,37.03
2018-07-22T09:17:12.285Z,36.88
2018-07-22T09:19:41.617Z,36.65
2018-07-22T09:22:10.795Z,36.43
2018-07-22T09:24:40.432Z,36.31
2018-07-22T09:27:10.093Z,36.11
2018-07-22T09:29:39.363Z,36.00
2018-07-22T09:32:09.560Z,35.94
2018-07-22T09:34:39.549Z,35.97
2018-07-22T09:37:09.237Z,35.96
2018-07-22T09:39:38.642Z,35.86
2018-07-22T09:42:08.553Z,35.77
2018-07-22T09:44:37.717Z,35.85
2018-07-22T09:47:06.912Z,35.99
2018-07-22T09:49:36.211Z,36.20
2018-07-22T09:52:06.289Z,36.34
2018-07-22T09:54:35.455Z,36.50
2018-07-22T09:57:04.935Z,36.61
2018-07-22T09:59:34.499Z,36.64
2018-07-22T10:02:03.865Z,36.60
2018-07-22T10:04:33.122Z,36.42
2018-07-22T10:07:02.545Z,36.15
2018-07-22T10:09:32.374Z,35.92
2018-07-22T10:12:01.688Z,35.77
2018-07-22T10:14:31.004Z,35.79
2018-07-22T10:17:01.409Z,35.93
2018-07-22T10:19:31.995Z,36.11
2018-07-22T10:22:01.541Z,36.21
2018-07-22T10:24:30.949Z,36.26
2018-07-22T10:27:00.070Z,36.20
2018-07-22T10:29:29.332Z,36.05
2018-07-22T10:31:58.516Z,35.99
2018-07-22T10:34:27.800Z,36.07
2018-07-22T10:36:56.881Z,36.34
2018-07-22T10:39:26.848Z,36.72
2018-07-22T10:41:56.251Z,37.13
2018-07-22T10:44:25.598Z,37.34
2018-07-22T10:46:54.833Z,37.44
2018-07-22T10:49:23.997Z,37.36
2018-07-22T10:51:54.024Z,37.19
2018-07-22T10:54:23.247Z,37.22
2018-07-22T10:56:52.527Z,37.54
2018-07-22T10:59:21.764Z,37.78
2018-07-22T11:01:51.040Z,37.81
2018-07-22T11:04:20.289Z,37.75
2018-07-22T11:06:49.400Z,37.71
2018-07-22T11:09:18.530Z,37.75
2018-07-22T11:11:47.709Z,37.63
2018-07-22T11:14:17.516Z,37.55
2018-07-22T11:16:46.581Z,37.56
2018-07-22T11:19:15.930Z,37.50
2018-07-22T11:21:45.347Z,37.43
2018-07-22T11:24:14.563Z,37.31
2018-07-22T11:26:43.715Z,37.13
2018-07-22T11:29:12.997Z,37.01
2018-07-22T11:31:42.353Z,36.98
2018-07-22T11:34:11.710Z,37.02
2018-07-22T11:36:40.901Z,37.04
2018-07-22T11:39:14.031Z,36.85
2018-07-22T11:41:43.133Z,36.58
2018-07-22T11:44:12.787Z,36.47
2018-07-22T11:46:41.857Z,36.48
2018-07-22T11:49:11.129Z,36.57
2018-07-22T11:51:39.955Z,36.59
2018-07-22T11:54:09.411Z,36.62
2018-07-22T11:56:38.584Z,36.53
2018-07-22T11:59:07.790Z,36.34
2018-07-22T12:01:36.965Z,36.26
2018-07-22T12:04:06.598Z,36.27
2018-07-22T12:06:35.764Z,36.32
2018-07-22T12:09:07.622Z,36.26
2018-07-22T12:11:36.949Z,35.99
2018-07-22T12:14:06.210Z,35.65
2018-07-22T12:16:35.376Z,35.43
2018-07-22T12:19:04.581Z,35.35
2018-07-22T12:21:33.843Z,35.39
2018-07-22T12:24:03.067Z,35.46
2018-07-22T12:26:32.220Z,35.46
2018-07-22T12:29:02.274Z,35.43
2018-07-22T12:31:31.402Z,35.38
2018-07-22T12:34:00.536Z,35.23
2018-07-22T12:36:29.848Z,35.09
2018-07-22T12:38:59.038Z,34.87
2018-07-22T12:41:28.145Z,34.53
2018-07-22T12:43:57.348Z,34.20
2018-07-22T12:46:26.894Z,33.95
2018-07-22T12:48:56.041Z,33.85
2018-07-22T12:51:25.227Z,33.85
2018-07-22T12:53:54.376Z,33.92
2018-07-22T12:56:23.461Z,33.99
2018-07-22T12:58:53.545Z,34.02
2018-07-22T13:01:22.697Z,34.07
2018-07-22T13:03:51.802Z,34.16
2018-07-22T13:06:20.865Z,34.35
2018-07-22T13:08:50.053Z,34.49
2018-07-22T13:11:19.260Z,34.57
2018-07-22T13:13:48.417Z,34.57
2018-07-22T13:16:17.524Z,34.51
2018-07-22T13:18:46.886Z,34.31
2018-07-22T13:21:16.017Z,34.03
2018-07-22T13:23:46.267Z,33.78
2018-07-22T13:26:15.390Z,33.57
2018-07-22T13:28:44.644Z,33.42
2018-07-22T13:31:13.745Z,33.32
2018-07-22T13:33:42.892Z,33.32
2018-07-22T13:36:12.245Z,33.40
2018-07-22T13:38:41.755Z,33.60
2018-07-22T13:41:10.922Z,33.86
2018-07-22T13:43:40.166Z,34.09
2018-07-22T13:46:09.395Z,34.34
2018-07-22T13:48:38.606Z,34.58
2018-07-22T13:51:07.997Z,34.81
2018-07-22T13:53:38.049Z,35.01
2018-07-22T13:56:08.299Z,35.18
2018-07-22T13:58:37.582Z,35.26
2018-07-22T14:01:06.985Z,35.17
2018-07-22T14:03:36.151Z,35.08
2018-07-22T14:06:05.264Z,35.00
2018-07-22T14:08:34.516Z,34.82
2018-07-22T14:11:04.323Z,34.66
2018-07-22T14:13:33.485Z,34.54
2018-07-22T14:16:02.708Z,34.44
2018-07-22T14:18:31.881Z,34.22
2018-07-22T14:21:01.040Z,34.06
2018-07-22T14:23:30.447Z,34.02
2018-07-22T14:25:59.739Z,34.03
2018-07-22T14:28:28.997Z,34.02
2018-07-22T14:30:58.755Z,34.09
2018-07-22T14:33:27.902Z,34.17
2018-07-22T14:35:58.387Z,34.16
2018-07-22T14:38:27.655Z,34.17
2018-07-22T14:40:56.936Z,34.22
2018-07-22T14:43:26.007Z,34.39
2018-07-22T14:45:55.078Z,34.58
2018-07-22T14:48:24.706Z,34.80
2018-07-22T14:50:53.812Z,35.01
2018-07-22T14:53:22.956Z,35.13
2018-07-22T14:55:52.181Z,35.10
2018-07-22T14:58:21.252Z,35.05
2018-07-22T15:00:50.430Z,34.99
2018-07-22T15:03:19.597Z,34.92
2018-07-22T15:05:48.736Z,34.80
2018-07-22T15:08:17.913Z,34.67
2018-07-22T15:10:47.174Z,34.50
2018-07-22T15:13:16.332Z,34.37
2018-07-22T15:15:45.590Z,34.22
2018-07-22T15:18:14.940Z,34.11
2018-07-22T15:20:44.161Z,33.96
2018-07-22T15:23:13.373Z,33.81
2018-07-22T15:25:42.574Z,33.67
2018-07-22T15:28:11.951Z,33.52
2018-07-22T15:30:41.167Z,33.40
2018-07-22T15:33:11.716Z,33.30
2018-07-22T15:35:41.396Z,33.23
2018-07-22T15:38:10.805Z,33.17
2018-07-22T15:40:39.994Z,33.09
2018-07-22T15:43:09.198Z,33.04
2018-07-22T15:45:38.802Z,32.92
2018-07-22T15:48:08.063Z,32.81
2018-07-22T15:50:37.254Z,32.66
2018-07-22T15:53:06.442Z,32.50
2018-07-22T15:55:35.716Z,32.38
2018-07-22T15:58:05.307Z,32.28
2018-07-22T16:00:34.504Z,32.22
2018-07-22T16:03:03.689Z,32.15
2018-07-22T16:05:32.882Z,32.10
2018-07-22T16:08:02.078Z,32.03
2018-07-22T16:10:31.263Z,32.03
2018-07-22T16:13:01.344Z,32.05
2018-07-22T16:15:30.524Z,32.09
2018-07-22T16:17:59.720Z,32.13
2018-07-22T16:20:28.903Z,32.18
2018-07-22T16:22:58.140Z,32.26
2018-07-22T16:25:27.255Z,32.34
2018-07-22T16:27:56.513Z,32.42
2018-07-22T16:30:25.655Z,32.47
2018-07-22T16:32:54.779Z,32.48
2018-07-22T16:35:24.008Z,32.49
2018-07-22T16:37:52.912Z,32.52
2018-07-22T16:40:22.104Z,32.55
2018-07-22T16:42:51.253Z,32.54
2018-07-22T16:45:20.355Z,32.53
2018-07-22T16:47:49.497Z,32.50
2018-07-22T16:50:18.739Z,32.48
2018-07-22T16:52:47.905Z,32.47
2018-07-22T16:55:17.104Z,32.47
2018-07-22T16:57:46.261Z,32.46
2018-07-22T17:00:15.439Z,32.45
2018-07-22T17:02:44.735Z,32.41
2018-07-22T17:05:13.927Z,32.40
2018-07-22T17:07:43.004Z,32.35
2018-07-22T17:10:12.352Z,32.32
2018-07-22T17:12:42.840Z,32.28
2018-07-22T17:15:12.018Z,32.24
2018-07-22T17:17:41.186Z,32.21
2018-07-22T17:20:10.406Z,32.17
2018-07-22T17:22:39.609Z,32.15
2018-07-22T17:25:12.687Z,32.13
2018-07-22T17:27:42.753Z,32.11
2018-07-22T17:30:12.275Z,32.09
2018-07-22T17:32:42.420Z,32.06
2018-07-22T17:35:11.620Z,32.01
2018-07-22T17:37:44.254Z,31.96
2018-07-22T17:40:15.756Z,31.88
2018-07-22T17:42:45.134Z,31.81
2018-07-22T17:45:18.712Z,31.76
2018-07-22T17:47:48.098Z,31.67
2018-07-22T17:50:17.498Z,31.62
2018-07-22T17:52:46.897Z,31.57
2018-07-22T17:55:19.627Z,31.51
2018-07-22T17:57:49.027Z,31.41
2018-07-22T18:00:19.412Z,31.32
2018-07-22T18:02:57.394Z,31.21
2018-07-22T18:05:28.983Z,31.11
2018-07-22T18:07:58.110Z,30.99
2018-07-22T18:10:30.452Z,30.88
2018-07-22T18:13:02.252Z,30.80
2018-07-22T18:15:34.534Z,30.73
2018-07-22T18:18:06.299Z,30.68
2018-07-22T18:20:36.100Z,30.64
2018-07-22T18:23:08.404Z,30.61
2018-07-22T18:25:40.276Z,30.57
2018-07-22T18:28:09.917Z,30.55
2018-07-22T18:30:43.971Z,30.52
2018-07-22T18:33:13.871Z,30.48
2018-07-22T18:35:43.839Z,30.43
2018-07-22T18:38:15.975Z,30.37
2018-07-22T18:40:45.925Z,30.33
2018-07-22T18:43:18.406Z,30.31
2018-07-22T18:45:50.805Z,30.27
2018-07-22T18:48:26.804Z,30.25
2018-07-22T18:51:12.671Z,30.21
2018-07-22T18:53:45.588Z,30.17
2018-07-22T18:56:18.625Z,30.12
2018-07-22T18:58:49.708Z,30.09
2018-07-22T19:01:24.449Z,30.03
2018-07-22T19:04:06.509Z,30.00
2018-07-22T19:06:36.644Z,29.92
2018-07-22T19:09:14.324Z,29.85
2018-07-22T19:11:47.865Z,29.75
2018-07-22T19:14:18.649Z,29.66
2018-07-22T19:16:51.637Z,29.60
2018-07-22T19:19:22.761Z,29.50
2018-07-22T19:21:53.532Z,29.44
2018-07-22T19:24:24.285Z,29.37
2018-07-22T19:26:54.278Z,29.30
2018-07-22T19:29:24.022Z,29.22
2018-07-22T19:31:53.757Z,29.16
2018-07-22T19:34:24.148Z,29.07
2018-07-22T19:36:54.392Z,29.00
2018-07-22T19:39:23.794Z,28.93
2018-07-22T19:41:55.367Z,28.85
2018-07-22T19:44:27.234Z,28.78
2018-07-22T19:46:56.595Z,28.72
2018-07-22T19:49:26.359Z,28.65
2018-07-22T19:51:59.645Z,28.58
2018-07-22T19:54:32.491Z,28.51
2018-07-22T19:57:01.989Z,28.44
2018-07-22T19:59:33.481Z,28.39
2018-07-22T20:02:03.574Z,28.32
2018-07-22T20:04:33.759Z,28.24
2018-07-22T20:07:09.836Z,28.17
2018-07-22T20:09:40.777Z,28.08
2018-07-22T20:12:10.586Z,28.03
2018-07-22T20:14:39.852Z,27.96
2018-07-22T20:17:09.829Z,27.89
2018-07-22T20:19:39.865Z,27.82
2018-07-22T20:22:09.263Z,27.76
2018-07-22T20:24:38.770Z,27.70
2018-07-22T20:27:08.069Z,27.66
2018-07-22T20:29:37.292Z,27.61
2018-07-22T20:32:06.450Z,27.57
2018-07-22T20:34:35.564Z,27.53
2018-07-22T20:37:04.749Z,27.48
2018-07-22T20:39:35.123Z,27.43
2018-07-22T20:42:04.581Z,27.39
2018-07-22T20:44:33.766Z,27.36
2018-07-22T20:47:03.057Z,27.32
2018-07-22T20:49:32.326Z,27.28
2018-07-22T20:52:01.574Z,27.25
2018-07-22T20:54:30.760Z,27.23
2018-07-22T20:56:59.868Z,27.19
2018-07-22T20:59:29.647Z,27.19
2018-07-22T21:01:58.656Z,27.16
2018-07-22T21:04:27.830Z,27.16
2018-07-22T21:06:56.842Z,27.16
2018-07-22T21:09:25.848Z,27.16
2018-07-22T21:13:17.480Z,27.17
2018-07-22T21:15:47.215Z,27.01
2018-07-22T21:18:16.223Z,27.01
2018-07-22T21:20:46.000Z,27.05
2018-07-22T21:23:15.031Z,27.06
2018-07-22T21:25:44.024Z,27.06
2018-07-22T21:28:13.068Z,27.04
2018-07-22T21:30:42.271Z,27.04
2018-07-22T21:33:11.324Z,27.02
2018-07-22T21:35:40.425Z,26.96
2018-07-22T21:38:09.493Z,26.95
2018-07-22T21:40:38.538Z,26.91
2018-07-22T21:43:08.195Z,26.86
2018-07-22T21:45:37.516Z,26.83
2018-07-22T21:48:06.690Z,26.77
2018-07-22T21:50:35.692Z,26.71
2018-07-22T21:53:04.683Z,26.64
2018-07-22T21:55:33.741Z,26.58
2018-07-22T21:58:02.789Z,26.51
2018-07-22T22:00:37.623Z,26.44
2018-07-22T22:03:06.919Z,26.35
2018-07-22T22:05:36.789Z,26.28
2018-07-22T22:08:05.953Z,26.19
2018-07-22T22:10:35.036Z,26.12
2018-07-22T22:13:04.180Z,26.04
2018-07-22T22:15:33.917Z,25.96
2018-07-22T22:18:05.229Z,25.88
2018-07-22T22:20:34.403Z,25.79
2018-07-22T22:23:03.520Z,25.73
2018-07-22T22:25:33.462Z,25.66
2018-07-22T22:28:02.607Z,25.60
2018-07-22T22:30:31.695Z,25.55
2018-07-22T22:33:00.823Z,25.50
2018-07-22T22:35:29.900Z,25.44
2018-07-22T22:37:59.039Z,25.40
2018-07-22T22:40:28.231Z,25.34
2018-07-22T22:42:57.299Z,25.29
2018-07-22T22:45:26.432Z,25.25
2018-07-22T22:47:55.491Z,25.21
2018-07-22T22:50:24.335Z,25.18
2018-07-22T22:52:53.376Z,25.12
2018-07-22T22:55:23.115Z,25.06
2018-07-22T22:58:09.843Z,25.04
2018-07-22T23:00:38.885Z,24.97
2018-07-22T23:03:08.747Z,24.94
2018-07-22T23:05:37.858Z,24.91
2018-07-22T23:08:06.869Z,24.88
2018-07-22T23:10:35.944Z,24.85
2018-07-22T23:13:05.369Z,24.81
2018-07-22T23:15:34.401Z,24.78
2018-07-22T23:18:04.036Z,24.73
2018-07-22T23:20:33.149Z,24.70
2018-07-22T23:23:02.183Z,24.62
2018-07-22T23:25:31.254Z,24.57
2018-07-22T23:28:00.243Z,24.51
2018-07-22T23:30:29.244Z,24.46
2018-07-22T23:32:58.443Z,24.39
2018-07-22T23:35:27.457Z,24.33
2018-07-22T23:37:56.460Z,24.29
2018-07-22T23:40:25.447Z,24.23
2018-07-22T23:43:01.001Z,24.19
2018-07-22T23:45:30.116Z,24.08
2018-07-22T23:48:00.439Z,23.97
2018-07-22T23:50:29.675Z,23.83
2018-07-22T23:52:58.733Z,23.68
2018-07-22T23:55:27.671Z,23.58
2018-07-22T23:57:56.890Z,23.46
